createdAt,value
2023-02-13T00:00:16.872Z,4.30
2023-02-13T00:02:44.001Z,4.30
2023-02-13T00:05:10.927Z,4.30
2023-02-13T00:07:37.794Z,4.30
2023-02-13T00:10:04.867Z,4.30
2023-02-13T00:12:31.872Z,4.40
2023-02-13T00:14:59.345Z,4.40
2023-02-13T00:17:26.457Z,4.50
2023-02-13T00:19:53.360Z,4.50
2023-02-13T00:22:20.212Z,4.50
2023-02-13T00:24:47.181Z,4.50
2023-02-13T00:27:14.071Z,4.60
2023-02-13T00:29:40.976Z,4.60
2023-02-13T00:32:07.972Z,4.60
2023-02-13T00:34:34.928Z,4.60
2023-02-13T00:37:01.792Z,4.60
2023-02-13T00:39:28.711Z,4.60
2023-02-13T00:41:55.597Z,4.60
2023-02-13T00:44:22.476Z,4.50
2023-02-13T00:46:49.349Z,4.40
2023-02-13T00:49:16.309Z,4.40
2023-02-13T00:51:43.150Z,4.40
2023-02-13T00:54:10.131Z,4.40
2023-02-13T00:56:37.079Z,4.30
2023-02-13T00:59:04.089Z,4.30
2023-02-13T01:01:31.135Z,4.20
2023-02-13T01:03:58.441Z,4.20
2023-02-13T01:06:25.602Z,4.20
2023-02-13T01:08:52.455Z,4.30
2023-02-13T01:11:19.578Z,4.30
2023-02-13T01:13:46.597Z,4.40
2023-02-13T01:16:16.086Z,4.40
2023-02-13T01:18:43.093Z,4.40
2023-02-13T01:21:15.588Z,4.50
2023-02-13T01:23:42.564Z,4.50
2023-02-13T01:26:11.367Z,4.50
2023-02-13T01:28:38.399Z,4.50
2023-02-13T01:31:05.471Z,4.60
2023-02-13T01:33:32.481Z,4.60
2023-02-13T01:36:00.585Z,4.60
2023-02-13T01:38:27.757Z,4.60
2023-02-13T01:40:54.667Z,4.60
2023-02-13T01:43:24.560Z,4.60
2023-02-13T01:45:54.640Z,4.60
2023-02-13T01:48:23.802Z,4.60
2023-02-13T01:50:55.117Z,4.60
2023-02-13T01:53:27.493Z,4.50
2023-02-13T01:56:00.695Z,4.50
2023-02-13T01:58:31.388Z,4.40
2023-02-13T02:00:58.946Z,4.40
2023-02-13T02:03:38.623Z,4.40
2023-02-13T02:06:07.370Z,4.40
2023-02-13T02:08:34.617Z,4.40
2023-02-13T02:11:05.643Z,4.40
2023-02-13T02:13:32.544Z,4.40
2023-02-13T02:15:59.436Z,4.40
2023-02-13T02:18:26.401Z,4.40
2023-02-13T02:20:56.420Z,4.40
2023-02-13T02:23:26.342Z,4.30
2023-02-13T02:26:11.874Z,4.30
2023-02-13T02:28:38.776Z,4.30
2023-02-13T02:31:14.597Z,4.30
2023-02-13T02:33:50.009Z,4.20
2023-02-13T02:36:31.933Z,4.20
2023-02-13T02:39:17.323Z,4.20
2023-02-13T02:41:59.262Z,4.30
2023-02-13T02:44:44.204Z,4.30
2023-02-13T02:47:29.852Z,4.30
2023-02-13T02:50:03.592Z,4.30
2023-02-13T02:52:30.450Z,4.20
2023-02-13T02:55:07.802Z,4.20
2023-02-13T02:58:15.706Z,4.20
2023-02-13T03:01:18.326Z,4.20
2023-02-13T03:04:04.997Z,4.30
2023-02-13T03:06:44.758Z,4.20
2023-02-13T03:09:32.825Z,4.30
2023-02-13T03:12:19.114Z,4.30
2023-02-13T03:14:46.160Z,4.30
2023-02-13T03:17:33.951Z,4.40
2023-02-13T03:20:19.242Z,4.40
2023-02-13T03:22:52.048Z,4.40
2023-02-13T03:25:30.447Z,4.40
2023-02-13T03:28:36.078Z,4.40
2023-02-13T03:31:13.322Z,4.40
2023-02-13T03:33:58.911Z,4.30
2023-02-13T03:36:50.436Z,4.30
2023-02-13T03:39:35.875Z,4.30
2023-02-13T03:42:06.387Z,4.30
2023-02-13T03:44:38.210Z,4.30
2023-02-13T03:47:06.709Z,4.20
2023-02-13T03:49:55.876Z,4.20
2023-02-13T03:52:26.216Z,4.20
2023-02-13T03:55:15.108Z,4.20
2023-02-13T03:58:02.350Z,4.20
2023-02-13T04:00:44.877Z,4.30
2023-02-13T04:03:17.145Z,4.20
2023-02-13T04:05:47.239Z,4.20
2023-02-13T04:08:14.196Z,4.20
2023-02-13T04:10:56.373Z,4.30
2023-02-13T04:13:39.713Z,4.30
2023-02-13T04:16:10.092Z,4.20
2023-02-13T04:18:38.096Z,4.20
2023-02-13T04:21:05.816Z,4.10
2023-02-13T04:23:32.680Z,4.10
2023-02-13T04:26:01.204Z,4.10
2023-02-13T04:28:28.127Z,4.20
2023-02-13T04:30:55.217Z,4.20
2023-02-13T04:33:22.187Z,4.30
2023-02-13T04:35:49.085Z,4.30
2023-02-13T04:38:15.910Z,4.30
2023-02-13T04:40:42.788Z,4.30
2023-02-13T04:43:09.626Z,4.30
2023-02-13T04:45:36.577Z,4.20
2023-02-13T04:48:03.370Z,4.20
2023-02-13T04:50:30.312Z,4.20
2023-02-13T04:52:58.426Z,4.10
2023-02-13T04:55:26.166Z,4.10
2023-02-13T04:57:54.188Z,4.00
2023-02-13T05:00:25.088Z,4.00
2023-02-13T05:02:52.171Z,4.00
2023-02-13T05:05:19.386Z,4.10
2023-02-13T05:07:46.367Z,4.00
2023-02-13T05:10:13.488Z,4.00
2023-02-13T05:12:40.340Z,3.90
2023-02-13T05:15:07.577Z,3.90
2023-02-13T05:17:34.460Z,3.90
2023-02-13T05:20:01.389Z,3.80
2023-02-13T05:22:46.651Z,3.80
2023-02-13T05:25:13.506Z,3.80
2023-02-13T05:27:40.414Z,3.80
2023-02-13T05:30:07.686Z,3.80
2023-02-13T05:32:34.596Z,3.80
2023-02-13T05:35:04.232Z,3.80
2023-02-13T05:37:31.707Z,3.80
2023-02-13T05:39:58.537Z,3.80
2023-02-13T05:42:25.443Z,3.80
2023-02-13T05:44:52.330Z,3.80
2023-02-13T05:47:19.221Z,3.80
2023-02-13T05:49:46.107Z,3.80
2023-02-13T05:52:12.995Z,3.80
2023-02-13T05:54:40.274Z,3.80
2023-02-13T05:57:07.138Z,3.80
2023-02-13T05:59:33.979Z,3.80
2023-02-13T06:02:00.821Z,3.80
2023-02-13T06:04:27.646Z,3.80
2023-02-13T06:06:54.507Z,3.80
2023-02-13T06:09:22.115Z,3.80
2023-02-13T06:11:49.294Z,3.80
2023-02-13T06:14:16.218Z,3.80
2023-02-13T06:16:43.047Z,3.80
2023-02-13T06:19:10.123Z,3.90
2023-02-13T06:21:38.749Z,3.90
2023-02-13T06:24:06.024Z,3.80
2023-02-13T06:26:32.940Z,3.80
2023-02-13T06:28:59.805Z,3.80
2023-02-13T06:31:26.897Z,3.80
2023-02-13T06:33:53.750Z,3.80
2023-02-13T06:36:20.677Z,3.70
2023-02-13T06:38:47.515Z,3.70
2023-02-13T06:41:14.317Z,3.70
2023-02-13T06:43:41.208Z,3.70
2023-02-13T06:46:08.812Z,3.60
2023-02-13T06:48:36.026Z,3.60
2023-02-13T06:51:03.031Z,3.60
2023-02-13T06:53:30.285Z,3.70
2023-02-13T06:55:57.326Z,3.70
2023-02-13T06:58:25.121Z,3.60
2023-02-13T07:00:52.571Z,3.60
2023-02-13T07:03:19.537Z,3.60
2023-02-13T07:05:46.543Z,3.70
2023-02-13T07:08:13.835Z,3.70
2023-02-13T07:10:41.627Z,3.70
2023-02-13T07:13:09.184Z,3.60
2023-02-13T07:15:36.463Z,3.70
2023-02-13T07:18:03.786Z,3.70
2023-02-13T07:20:30.924Z,3.80
2023-02-13T07:22:58.752Z,3.80
2023-02-13T07:25:26.127Z,3.90
2023-02-13T07:27:53.012Z,3.90
2023-02-13T07:30:19.871Z,4.00
2023-02-13T07:32:46.741Z,4.10
2023-02-13T07:35:13.631Z,4.10
2023-02-13T07:37:40.642Z,4.20
2023-02-13T07:40:08.089Z,4.20
2023-02-13T07:42:35.249Z,4.30
2023-02-13T07:45:05.775Z,4.30
2023-02-13T07:47:33.447Z,4.30
2023-02-13T07:50:00.364Z,4.30
2023-02-13T07:52:27.230Z,4.30
2023-02-13T07:54:54.142Z,4.30
2023-02-13T07:57:21.159Z,4.30
2023-02-13T07:59:48.038Z,4.30
2023-02-13T08:02:15.527Z,4.30
2023-02-13T08:04:46.626Z,4.30
2023-02-13T08:07:14.698Z,4.30
2023-02-13T08:09:59.964Z,4.20
2023-02-13T08:12:26.913Z,4.20
2023-02-13T08:14:53.941Z,4.20
2023-02-13T08:17:20.821Z,4.30
2023-02-13T08:19:47.784Z,4.20
2023-02-13T08:22:14.674Z,4.30
2023-02-13T08:24:41.602Z,4.30
2023-02-13T08:27:11.782Z,4.30
2023-02-13T08:29:38.753Z,4.30
2023-02-13T08:32:06.365Z,4.30
2023-02-13T08:34:33.317Z,4.30
2023-02-13T08:37:01.375Z,4.30
2023-02-13T08:39:28.338Z,4.20
2023-02-13T08:41:55.318Z,4.20
2023-02-13T08:44:22.300Z,4.20
2023-02-13T08:46:49.202Z,4.30
2023-02-13T08:49:16.063Z,4.30
2023-02-13T08:51:43.043Z,4.30
2023-02-13T08:54:09.893Z,4.30
2023-02-13T08:56:36.743Z,4.30
2023-02-13T08:59:03.665Z,4.30
2023-02-13T09:01:30.634Z,4.30
2023-02-13T09:03:57.534Z,4.40
2023-02-13T09:06:26.500Z,4.40
2023-02-13T09:08:53.907Z,4.50
2023-02-13T09:11:23.580Z,4.50
2023-02-13T09:13:53.163Z,4.50
2023-02-13T09:16:20.212Z,4.60
2023-02-13T09:18:48.167Z,4.60
2023-02-13T09:21:15.981Z,4.60
2023-02-13T09:23:42.920Z,4.60
2023-02-13T09:26:11.618Z,4.70
2023-02-13T09:28:39.166Z,4.70
2023-02-13T09:31:07.416Z,4.60
2023-02-13T09:33:35.166Z,4.60
2023-02-13T09:36:08.972Z,4.60
2023-02-13T09:38:36.349Z,4.60
2023-02-13T09:41:08.019Z,4.60
2023-02-13T09:43:43.106Z,4.70
2023-02-13T09:46:16.421Z,4.80
2023-02-13T09:48:46.992Z,4.90
2023-02-13T09:51:16.288Z,4.90
2023-02-13T09:53:46.549Z,5.00
2023-02-13T09:56:17.885Z,5.00
2023-02-13T09:58:47.782Z,5.10
2023-02-13T10:01:34.960Z,5.10
2023-02-13T10:04:15.740Z,5.10
2023-02-13T10:06:50.512Z,5.20
2023-02-13T10:09:21.654Z,5.20
2023-02-13T10:12:01.473Z,5.20
2023-02-13T10:14:43.838Z,5.30
2023-02-13T10:17:19.717Z,5.30
2023-02-13T10:19:55.579Z,5.40
2023-02-13T10:22:36.107Z,5.40
2023-02-13T10:25:04.897Z,5.40
2023-02-13T10:27:38.070Z,5.50
2023-02-13T10:30:13.091Z,5.50
2023-02-13T10:33:21.842Z,5.50
2023-02-13T10:36:01.061Z,5.60
2023-02-13T10:38:30.018Z,5.60
2023-02-13T10:41:06.699Z,5.70
2023-02-13T10:43:45.941Z,5.70
2023-02-13T10:46:18.776Z,5.80
2023-02-13T10:48:45.665Z,5.80
2023-02-13T10:51:33.790Z,5.90
2023-02-13T10:54:26.494Z,5.90
2023-02-13T10:57:07.622Z,5.90
2023-02-13T10:59:40.359Z,5.90
2023-02-13T11:02:09.903Z,5.90
2023-02-13T11:04:36.739Z,5.90
2023-02-13T11:07:04.653Z,6.00
2023-02-13T11:09:37.162Z,6.00
2023-02-13T11:12:33.772Z,6.20
2023-02-13T11:15:02.099Z,6.30
2023-02-13T11:17:30.445Z,6.40
2023-02-13T11:19:58.541Z,6.50
2023-02-13T11:22:45.066Z,6.60
2023-02-13T11:25:17.826Z,6.70
2023-02-13T11:27:45.611Z,6.70
2023-02-13T11:30:12.636Z,6.80
2023-02-13T11:32:39.555Z,6.90
2023-02-13T11:35:27.644Z,7.00
2023-02-13T11:38:11.633Z,7.10
2023-02-13T11:40:38.579Z,7.20
2023-02-13T11:43:06.827Z,7.20
2023-02-13T11:45:34.137Z,7.30
2023-02-13T11:48:01.233Z,7.30
2023-02-13T11:50:35.162Z,7.40
2023-02-13T11:53:04.361Z,7.40
2023-02-13T11:55:35.329Z,7.40
2023-02-13T11:58:23.546Z,7.50
2023-02-13T12:00:50.745Z,7.50
2023-02-13T12:03:20.477Z,7.40
2023-02-13T12:06:01.076Z,7.40
2023-02-13T12:08:28.579Z,7.50
2023-02-13T12:10:57.019Z,7.50
2023-02-13T12:13:32.806Z,7.50
2023-02-13T12:16:01.646Z,7.50
2023-02-13T12:18:36.527Z,7.40
2023-02-13T12:21:15.856Z,7.40
2023-02-13T12:23:45.774Z,7.40
2023-02-13T12:26:45.000Z,7.40
2023-02-13T12:29:20.869Z,7.40
2023-02-13T12:32:03.155Z,7.40
2023-02-13T12:34:39.288Z,7.30
2023-02-13T12:37:29.450Z,7.30
2023-02-13T12:40:13.767Z,7.30
2023-02-13T12:42:43.591Z,7.40
2023-02-13T12:45:10.590Z,7.30
2023-02-13T12:47:45.874Z,7.30
2023-02-13T12:50:23.573Z,7.30
2023-02-13T12:52:50.387Z,7.30
2023-02-13T12:55:34.525Z,7.30
2023-02-13T12:58:16.452Z,7.40
2023-02-13T13:00:53.974Z,7.40
2023-02-13T13:03:24.028Z,7.40
2023-02-13T13:06:20.463Z,7.30
2023-02-13T13:08:58.903Z,7.40
2023-02-13T13:11:44.373Z,7.40
2023-02-13T13:14:17.473Z,7.40
2023-02-13T13:16:53.946Z,7.40
2023-02-13T13:19:23.814Z,7.40
2023-02-13T13:21:52.840Z,7.40
2023-02-13T13:24:25.946Z,7.40
2023-02-13T13:26:57.582Z,7.50
2023-02-13T13:29:26.710Z,7.50
2023-02-13T13:32:00.032Z,7.50
2023-02-13T13:34:27.707Z,7.40
2023-02-13T13:37:08.134Z,7.50
2023-02-13T13:39:41.657Z,7.50
2023-02-13T13:42:25.562Z,7.50
2023-02-13T13:44:52.460Z,7.50
2023-02-13T13:47:19.275Z,7.50
2023-02-13T13:49:53.985Z,7.50
2023-02-13T13:52:27.033Z,7.50
2023-02-13T13:54:54.784Z,7.50
2023-02-13T13:57:22.849Z,7.50
2023-02-13T13:59:51.931Z,7.50
2023-02-13T14:02:18.893Z,7.50
2023-02-13T14:05:04.585Z,7.60
2023-02-13T14:07:36.364Z,7.60
2023-02-13T14:10:03.359Z,7.60
2023-02-13T14:12:30.247Z,7.60
2023-02-13T14:14:57.627Z,7.60
2023-02-13T14:17:43.327Z,7.60
2023-02-13T14:20:28.721Z,7.60
2023-02-13T14:22:55.656Z,7.70
2023-02-13T14:25:26.632Z,7.70
2023-02-13T14:28:16.864Z,7.70
2023-02-13T14:30:43.906Z,7.80
2023-02-13T14:33:22.975Z,7.90
2023-02-13T14:35:59.655Z,7.90
2023-02-13T14:38:27.720Z,8.00
2023-02-13T14:40:55.065Z,8.00
2023-02-13T14:43:26.138Z,8.00
2023-02-13T14:45:55.672Z,8.00
2023-02-13T14:48:25.444Z,7.90
2023-02-13T14:50:53.414Z,7.90
2023-02-13T14:53:24.970Z,7.90
2023-02-13T14:56:14.960Z,7.90
2023-02-13T14:58:48.751Z,7.90
2023-02-13T15:01:28.380Z,8.00
2023-02-13T15:04:00.205Z,8.00
2023-02-13T15:06:28.774Z,8.00
2023-02-13T15:08:56.611Z,8.00
2023-02-13T15:11:38.606Z,8.00
2023-02-13T15:14:25.829Z,7.90
2023-02-13T15:16:54.651Z,7.90
2023-02-13T15:19:22.318Z,7.90
2023-02-13T15:21:54.110Z,7.80
2023-02-13T15:24:22.984Z,7.80
2023-02-13T15:26:50.884Z,7.80
2023-02-13T15:29:27.734Z,7.70
2023-02-13T15:31:57.040Z,7.70
2023-02-13T15:34:28.767Z,7.60
2023-02-13T15:36:56.370Z,7.50
2023-02-13T15:39:25.219Z,7.50
2023-02-13T15:41:54.404Z,7.40
2023-02-13T15:44:26.241Z,7.30
2023-02-13T15:46:54.716Z,7.30
2023-02-13T15:49:23.914Z,7.20
2023-02-13T15:51:51.571Z,7.20
2023-02-13T15:54:21.474Z,7.10
2023-02-13T15:56:49.758Z,7.10
2023-02-13T15:59:17.202Z,7.00
2023-02-13T16:01:46.870Z,6.90
2023-02-13T16:04:15.520Z,6.90
2023-02-13T16:06:43.326Z,6.80
2023-02-13T16:09:29.285Z,6.80
2023-02-13T16:12:14.317Z,6.70
2023-02-13T16:14:47.005Z,6.60
2023-02-13T16:17:33.196Z,6.50
2023-02-13T16:20:02.131Z,6.40
2023-02-13T16:22:32.283Z,6.40
2023-02-13T16:25:19.553Z,6.30
2023-02-13T16:27:48.633Z,6.30
2023-02-13T16:30:34.635Z,6.30
2023-02-13T16:33:16.971Z,6.30
2023-02-13T16:35:51.459Z,6.20
2023-02-13T16:38:30.668Z,6.10
2023-02-13T16:41:00.821Z,6.10
2023-02-13T16:43:36.913Z,6.00
2023-02-13T16:46:20.048Z,6.00
2023-02-13T16:48:49.018Z,5.90
2023-02-13T16:51:17.238Z,5.80
2023-02-13T16:53:44.240Z,5.80
2023-02-13T16:56:11.655Z,5.80
2023-02-13T16:58:38.628Z,5.70
2023-02-13T17:01:05.613Z,5.60
2023-02-13T17:03:33.123Z,5.50
2023-02-13T17:06:03.490Z,5.50
2023-02-13T17:08:33.214Z,5.50
2023-02-13T17:11:06.990Z,5.50
2023-02-13T17:13:34.244Z,5.40
2023-02-13T17:16:01.075Z,5.30
2023-02-13T17:18:28.037Z,5.30
2023-02-13T17:20:54.977Z,5.20
2023-02-13T17:23:23.278Z,5.20
2023-02-13T17:25:52.211Z,5.10
2023-02-13T17:28:21.704Z,5.10
2023-02-13T17:30:50.364Z,5.10
2023-02-13T17:33:22.124Z,5.10
2023-02-13T17:35:49.056Z,5.20
2023-02-13T17:38:16.324Z,5.20
2023-02-13T17:40:43.939Z,5.20
2023-02-13T17:43:14.880Z,5.10
2023-02-13T17:45:42.236Z,5.10
2023-02-13T17:48:09.242Z,5.00
2023-02-13T17:50:36.283Z,4.90
2023-02-13T17:53:04.185Z,4.90
2023-02-13T17:55:32.235Z,4.80
2023-02-13T17:57:59.792Z,4.70
2023-02-13T18:00:28.290Z,4.70
2023-02-13T18:02:55.768Z,4.70
2023-02-13T18:05:22.772Z,4.70
2023-02-13T18:07:49.732Z,4.70
2023-02-13T18:10:17.835Z,4.70
2023-02-13T18:12:45.212Z,4.70
2023-02-13T18:15:12.387Z,4.70
2023-02-13T18:17:39.429Z,4.70
2023-02-13T18:20:07.213Z,4.70
2023-02-13T18:22:34.106Z,4.70
2023-02-13T18:25:01.691Z,4.70
2023-02-13T18:27:28.778Z,4.80
2023-02-13T18:29:56.352Z,4.80
2023-02-13T18:32:23.349Z,4.80
2023-02-13T18:34:50.449Z,4.70
2023-02-13T18:37:18.405Z,4.70
2023-02-13T18:39:45.533Z,4.60
2023-02-13T18:42:13.756Z,4.50
2023-02-13T18:44:40.947Z,4.50
2023-02-13T18:47:08.285Z,4.40
2023-02-13T18:49:35.366Z,4.30
2023-02-13T18:52:02.495Z,4.30
2023-02-13T18:54:29.505Z,4.30
2023-02-13T18:56:56.573Z,4.30
2023-02-13T18:59:23.776Z,4.30
2023-02-13T19:01:51.204Z,4.40
2023-02-13T19:04:18.133Z,4.40
2023-02-13T19:06:45.308Z,4.40
2023-02-13T19:09:12.421Z,4.40
2023-02-13T19:11:39.607Z,4.30
2023-02-13T19:14:06.932Z,4.30
2023-02-13T19:16:34.932Z,4.20
2023-02-13T19:19:02.833Z,4.20
2023-02-13T19:21:30.484Z,4.30
2023-02-13T19:23:57.814Z,4.30
2023-02-13T19:26:25.800Z,4.40
2023-02-13T19:28:53.144Z,4.40
2023-02-13T19:31:21.194Z,4.40
2023-02-13T19:33:48.572Z,4.40
2023-02-13T19:36:18.604Z,4.40
2023-02-13T19:38:47.105Z,4.40
2023-02-13T19:41:15.378Z,4.40
2023-02-13T19:43:42.493Z,4.40
2023-02-13T19:46:13.199Z,4.40
2023-02-13T19:48:40.464Z,4.30
2023-02-13T19:51:08.374Z,4.20
2023-02-13T19:53:35.294Z,4.20
2023-02-13T19:56:02.585Z,4.10
2023-02-13T19:58:30.653Z,4.00
2023-02-13T20:01:06.389Z,4.00
2023-02-13T20:03:33.339Z,4.00
2023-02-13T20:06:04.267Z,4.00
2023-02-13T20:08:31.188Z,3.90
2023-02-13T20:10:58.472Z,3.90
2023-02-13T20:13:26.669Z,3.90
2023-02-13T20:15:53.747Z,3.90
2023-02-13T20:18:20.682Z,3.90
2023-02-13T20:20:47.626Z,3.90
2023-02-13T20:23:17.030Z,3.90
2023-02-13T20:25:44.320Z,4.00
2023-02-13T20:28:11.711Z,4.00
2023-02-13T20:30:42.531Z,4.10
2023-02-13T20:33:09.656Z,4.10
2023-02-13T20:35:36.659Z,4.00
2023-02-13T20:38:03.942Z,4.00
2023-02-13T20:40:30.924Z,4.10
2023-02-13T20:42:57.809Z,4.10
2023-02-13T20:45:24.762Z,4.10
2023-02-13T20:47:51.828Z,4.10
2023-02-13T20:50:19.070Z,4.10
2023-02-13T20:52:46.000Z,4.10
2023-02-13T20:55:12.890Z,4.00
2023-02-13T20:57:39.866Z,4.00
2023-02-13T21:00:07.285Z,3.90
2023-02-13T21:02:34.257Z,3.90
2023-02-13T21:05:01.179Z,3.90
2023-02-13T21:07:29.884Z,4.00
2023-02-13T21:09:57.884Z,4.00
2023-02-13T21:12:24.755Z,4.00
2023-02-13T21:14:51.593Z,4.00
2023-02-13T21:17:18.495Z,4.00
2023-02-13T21:19:45.712Z,4.00
2023-02-13T21:22:12.761Z,4.00
2023-02-13T21:24:40.637Z,3.90
2023-02-13T21:27:08.126Z,4.00
2023-02-13T21:29:35.957Z,4.00
2023-02-13T21:32:02.955Z,4.10
2023-02-13T21:34:29.918Z,4.20
2023-02-13T21:36:56.792Z,4.20
2023-02-13T21:39:23.627Z,4.30
2023-02-13T21:41:50.486Z,4.40
2023-02-13T21:44:17.437Z,4.40
2023-02-13T21:46:45.220Z,4.40
2023-02-13T21:49:13.251Z,4.50
2023-02-13T21:51:40.910Z,4.50
2023-02-13T21:54:07.836Z,4.50
2023-02-13T21:56:36.214Z,4.50
2023-02-13T21:59:06.189Z,4.50
2023-02-13T22:01:37.479Z,4.50
2023-02-13T22:04:06.475Z,4.40
2023-02-13T22:06:35.345Z,4.40
2023-02-13T22:09:06.212Z,4.30
2023-02-13T22:11:33.836Z,4.30
2023-02-13T22:14:04.407Z,4.20
2023-02-13T22:16:32.706Z,4.10
2023-02-13T22:19:00.164Z,4.00
2023-02-13T22:21:28.237Z,4.00
2023-02-13T22:23:55.399Z,3.90
2023-02-13T22:26:23.895Z,3.90
2023-02-13T22:28:51.216Z,3.90
2023-02-13T22:31:18.534Z,4.00
2023-02-13T22:33:52.306Z,4.00
2023-02-13T22:36:22.569Z,3.90
2023-02-13T22:38:50.542Z,3.90
2023-02-13T22:41:18.955Z,3.80
2023-02-13T22:43:45.800Z,3.80
2023-02-13T22:46:14.236Z,3.70
2023-02-13T22:48:42.026Z,3.70
2023-02-13T22:51:09.795Z,3.60
2023-02-13T22:53:37.437Z,3.60
2023-02-13T22:56:05.040Z,3.60
2023-02-13T22:58:32.082Z,3.70
2023-02-13T23:00:59.718Z,3.70
2023-02-13T23:03:27.223Z,3.70
2023-02-13T23:05:54.031Z,3.70
2023-02-13T23:08:21.078Z,3.60
2023-02-13T23:11:08.024Z,3.70
2023-02-13T23:13:34.997Z,3.70
2023-02-13T23:16:02.020Z,3.60
2023-02-13T23:18:28.958Z,3.60
2023-02-13T23:20:55.926Z,3.60
2023-02-13T23:23:26.621Z,3.60
2023-02-13T23:25:53.575Z,3.60
2023-02-13T23:28:20.518Z,3.60
2023-02-13T23:30:47.566Z,3.60
2023-02-13T23:33:14.799Z,3.60
2023-02-13T23:35:41.680Z,3.60
2023-02-13T23:38:08.526Z,3.60
2023-02-13T23:40:35.424Z,3.60
2023-02-13T23:43:02.358Z,3.70
2023-02-13T23:45:29.212Z,3.70
2023-02-13T23:47:56.126Z,3.70
2023-02-13T23:50:23.026Z,3.70
2023-02-13T23:52:50.098Z,3.70
2023-02-13T23:55:17.024Z,3.70
2023-02-13T23:57:44.020Z,3.70
